createdAt,value
2022-11-01T00:01:26.413Z,97515.69
2022-11-01T00:03:52.961Z,97524.63
2022-11-01T00:06:19.731Z,97533.09
2022-11-01T00:08:46.324Z,97538.94
2022-11-01T00:11:14.311Z,97547.47
2022-11-01T00:13:45.202Z,97543.88
2022-11-01T00:16:11.859Z,97553.53
2022-11-01T00:18:38.650Z,97555.81
2022-11-01T00:21:05.622Z,97582.91
2022-11-01T00:23:32.236Z,97604.13
2022-11-01T00:25:59.436Z,97593.09
2022-11-01T00:28:26.148Z,97594.75
2022-11-01T00:30:55.390Z,97583.44
2022-11-01T00:33:22.005Z,97578.81
2022-11-01T00:35:48.573Z,97575.19
2022-11-01T00:38:16.352Z,97580.69
2022-11-01T00:40:43.577Z,97596.78
2022-11-01T00:43:10.775Z,97591.06
2022-11-01T00:45:37.462Z,97594.91
2022-11-01T00:48:06.181Z,97593.59
2022-11-01T00:50:32.779Z,97577.41
2022-11-01T00:52:59.362Z,97581.28
2022-11-01T00:55:26.046Z,97575.53
2022-11-01T00:57:52.657Z,97572.53
2022-11-01T01:00:19.506Z,97571.41
2022-11-01T01:02:46.060Z,97572.84
2022-11-01T01:05:13.988Z,97570.31
2022-11-01T01:07:40.684Z,97558.59
2022-11-01T01:10:08.130Z,97554.47
2022-11-01T01:12:34.709Z,97548.16
2022-11-01T01:15:01.743Z,97546.53
2022-11-01T01:17:31.245Z,97553.75
2022-11-01T01:20:00.378Z,97549.63
2022-11-01T01:22:28.535Z,97562.53
2022-11-01T01:24:55.147Z,97563.09
2022-11-01T01:27:21.876Z,97568.03
2022-11-01T01:29:48.417Z,97570.97
2022-11-01T01:32:16.518Z,97560.03
2022-11-01T01:34:43.103Z,97552.94
2022-11-01T01:37:10.799Z,97560.41
2022-11-01T01:39:38.782Z,97557.41
2022-11-01T01:42:16.021Z,97549.44
2022-11-01T01:45:14.885Z,97534.59
2022-11-01T01:47:43.196Z,97538.69
2022-11-01T01:50:13.251Z,97524.13
2022-11-01T01:52:43.817Z,97533.00
2022-11-01T01:55:15.010Z,97520.63
2022-11-01T01:57:42.507Z,97524.13
2022-11-01T02:00:10.454Z,97514.47
2022-11-01T02:02:37.179Z,97509.59
2022-11-01T02:05:10.625Z,97508.94
2022-11-01T02:07:37.274Z,97505.97
2022-11-01T02:10:04.693Z,97508.22
2022-11-01T02:12:35.895Z,97505.50
2022-11-01T02:15:03.998Z,97512.63
2022-11-01T02:17:35.782Z,97499.38
2022-11-01T02:20:25.645Z,97497.88
2022-11-01T02:23:19.897Z,97501.25
2022-11-01T02:26:00.507Z,97500.44
2022-11-01T02:28:47.754Z,97506.94
2022-11-01T02:31:35.122Z,97521.22
2022-11-01T02:34:10.613Z,97527.81
2022-11-01T02:36:44.407Z,97526.75
2022-11-01T02:39:18.642Z,97530.69
2022-11-01T02:41:50.931Z,97544.69
2022-11-01T02:44:22.943Z,97560.66
2022-11-01T02:46:49.575Z,97553.56
2022-11-01T02:49:18.710Z,97572.16
2022-11-01T02:51:47.004Z,97572.78
2022-11-01T02:54:20.822Z,97571.69
2022-11-01T02:56:47.449Z,97569.81
2022-11-01T02:59:19.688Z,97568.78
2022-11-01T03:01:52.237Z,97573.44
2022-11-01T03:04:20.356Z,97573.97
2022-11-01T03:06:51.501Z,97575.69
2022-11-01T03:09:18.170Z,97580.03
2022-11-01T03:11:54.639Z,97584.19
2022-11-01T03:14:30.285Z,97590.47
2022-11-01T03:17:02.362Z,97584.34
2022-11-01T03:19:37.715Z,97583.34
2022-11-01T03:22:10.679Z,97583.25
2022-11-01T03:24:44.007Z,97582.38
2022-11-01T03:27:16.235Z,97579.84
2022-11-01T03:29:48.326Z,97572.16
2022-11-01T03:32:16.899Z,97568.06
2022-11-01T03:34:46.475Z,97589.16
2022-11-01T03:37:13.682Z,97589.16
2022-11-01T03:39:44.615Z,97576.53
2022-11-01T03:42:14.798Z,97581.47
2022-11-01T03:44:44.753Z,97589.09
2022-11-01T03:47:12.148Z,97596.66
2022-11-01T03:49:38.809Z,97586.31
2022-11-01T03:52:06.993Z,97583.56
2022-11-01T03:54:33.650Z,97582.50
2022-11-01T03:57:00.271Z,97581.97
2022-11-01T03:59:26.847Z,97586.31
2022-11-01T04:01:53.529Z,97588.75
2022-11-01T04:04:20.221Z,97581.25
2022-11-01T04:06:46.806Z,97579.25
2022-11-01T04:09:14.705Z,97587.72
2022-11-01T04:11:41.267Z,97604.63
2022-11-01T04:14:07.852Z,97601.53
2022-11-01T04:16:34.410Z,97599.66
2022-11-01T04:19:00.965Z,97610.88
2022-11-01T04:21:31.295Z,97615.03
2022-11-01T04:23:58.124Z,97625.13
2022-11-01T04:26:26.323Z,97619.16
2022-11-01T04:28:52.897Z,97613.91
2022-11-01T04:31:19.467Z,97614.41
2022-11-01T04:33:46.138Z,97621.91
2022-11-01T04:36:12.704Z,97625.59
2022-11-01T04:38:39.306Z,97627.28
2022-11-01T04:41:05.891Z,97623.72
2022-11-01T04:43:33.811Z,97638.13
2022-11-01T04:46:00.397Z,97636.88
2022-11-01T04:48:27.044Z,97635.16
2022-11-01T04:50:53.634Z,97638.41
2022-11-01T04:53:20.205Z,97647.03
2022-11-01T04:55:46.762Z,97650.75
2022-11-01T04:58:13.328Z,97646.81
2022-11-01T05:00:41.266Z,97649.03
2022-11-01T05:03:09.786Z,97650.97
2022-11-01T05:05:36.473Z,97643.72
2022-11-01T05:08:05.344Z,97648.16
2022-11-01T05:10:32.751Z,97645.97
2022-11-01T05:12:59.713Z,97648.00
2022-11-01T05:15:26.866Z,97644.97
2022-11-01T05:17:54.789Z,97643.56
2022-11-01T05:20:21.363Z,97645.72
2022-11-01T05:22:47.922Z,97637.78
2022-11-01T05:25:14.693Z,97636.88
2022-11-01T05:27:41.266Z,97645.69
2022-11-01T05:30:09.402Z,97637.34
2022-11-01T05:32:36.130Z,97633.22
2022-11-01T05:35:04.994Z,97640.97
2022-11-01T05:37:31.562Z,97645.09
2022-11-01T05:39:58.096Z,97656.94
2022-11-01T05:42:24.668Z,97666.41
2022-11-01T05:44:51.184Z,97658.47
2022-11-01T05:47:17.784Z,97661.97
2022-11-01T05:49:44.348Z,97670.75
2022-11-01T05:52:12.283Z,97678.75
2022-11-01T05:54:38.833Z,97679.31
2022-11-01T05:57:05.745Z,97688.13
2022-11-01T05:59:32.310Z,97690.78
2022-11-01T06:01:58.959Z,97689.38
2022-11-01T06:04:25.588Z,97697.97
2022-11-01T06:06:52.130Z,97701.34
2022-11-01T06:09:20.152Z,97690.59
2022-11-01T06:11:46.741Z,97695.81
2022-11-01T06:14:13.314Z,97705.16
2022-11-01T06:16:39.884Z,97706.75
2022-11-01T06:19:06.590Z,97701.22
2022-11-01T06:21:33.324Z,97718.00
2022-11-01T06:23:59.885Z,97726.31
2022-11-01T06:26:27.818Z,97735.72
2022-11-01T06:28:54.403Z,97728.13
2022-11-01T06:31:20.996Z,97741.47
2022-11-01T06:33:49.081Z,97755.03
2022-11-01T06:36:15.613Z,97755.63
2022-11-01T06:38:42.194Z,97761.38
2022-11-01T06:41:08.722Z,97754.69
2022-11-01T06:43:36.672Z,97755.03
2022-11-01T06:46:03.482Z,97755.84
2022-11-01T06:48:30.227Z,97748.75
2022-11-01T06:50:56.785Z,97754.47
2022-11-01T06:53:23.962Z,97767.63
2022-11-01T06:55:50.928Z,97771.00
2022-11-01T06:58:17.595Z,97786.22
2022-11-01T07:00:45.627Z,97799.50
2022-11-01T07:03:14.120Z,97801.31
2022-11-01T07:05:41.501Z,97802.72
2022-11-01T07:08:10.480Z,97816.50
2022-11-01T07:10:38.265Z,97819.78
2022-11-01T07:13:06.267Z,97825.53
2022-11-01T07:15:32.871Z,97837.31
2022-11-01T07:18:02.880Z,97829.72
2022-11-01T07:20:31.131Z,97827.13
2022-11-01T07:22:58.980Z,97825.78
2022-11-01T07:25:26.043Z,97816.38
2022-11-01T07:27:52.741Z,97829.94
2022-11-01T07:30:19.526Z,97820.28
2022-11-01T07:32:46.350Z,97821.31
2022-11-01T07:35:14.455Z,97842.53
2022-11-01T07:37:41.135Z,97837.19
2022-11-01T07:40:08.430Z,97828.03
2022-11-01T07:42:41.066Z,97830.50
2022-11-01T07:45:11.981Z,97822.28
2022-11-01T07:47:39.537Z,97819.31
2022-11-01T07:50:07.231Z,97825.72
2022-11-01T07:52:35.141Z,97826.31
2022-11-01T07:55:01.659Z,97832.22
2022-11-01T07:57:28.198Z,97827.06
2022-11-01T07:59:54.753Z,97835.81
2022-11-01T08:02:21.412Z,97843.84
2022-11-01T08:04:48.042Z,97834.28
2022-11-01T08:07:14.594Z,97835.56
2022-11-01T08:09:42.480Z,97838.13
2022-11-01T08:12:08.995Z,97845.81
2022-11-01T08:14:35.561Z,97843.50
2022-11-01T08:17:02.057Z,97843.28
2022-11-01T08:19:28.703Z,97839.34
2022-11-01T08:21:57.552Z,97838.22
2022-11-01T08:24:24.088Z,97840.16
2022-11-01T08:26:52.097Z,97841.38
2022-11-01T08:29:18.866Z,97847.25
2022-11-01T08:31:45.721Z,97837.97
2022-11-01T08:34:15.889Z,97840.25
2022-11-01T08:36:43.345Z,97835.31
2022-11-01T08:41:41.512Z,97842.88
2022-11-01T08:44:09.733Z,97839.53
2022-11-01T08:46:36.267Z,97841.69
2022-11-01T08:49:02.812Z,97849.13
2022-11-01T08:51:29.346Z,97847.97
2022-11-01T08:53:56.305Z,97853.28
2022-11-01T08:56:22.927Z,97865.63
2022-11-01T08:58:49.491Z,97859.91
2022-11-01T09:01:17.742Z,97868.00
2022-11-01T09:03:44.399Z,97866.53
2022-11-01T09:06:10.959Z,97864.47
2022-11-01T09:08:37.551Z,97862.78
2022-11-01T09:11:04.274Z,97867.16
2022-11-01T09:13:30.853Z,97867.78
2022-11-01T09:16:01.415Z,97879.19
2022-11-01T09:18:30.587Z,97873.41
2022-11-01T09:20:57.330Z,97875.09
2022-11-01T09:23:23.900Z,97870.25
2022-11-01T09:25:50.435Z,97881.88
2022-11-01T09:28:17.022Z,97877.25
2022-11-01T09:30:49.653Z,97875.38
2022-11-01T09:33:21.731Z,97871.56
2022-11-01T09:35:55.300Z,97867.03
2022-11-01T09:38:23.632Z,97865.38
2022-11-01T09:40:59.550Z,97872.66
2022-11-01T09:43:30.784Z,97871.31
2022-11-01T09:45:58.512Z,97876.19
2022-11-01T09:48:27.311Z,97875.03
2022-11-01T09:50:55.354Z,97880.06
2022-11-01T09:53:25.933Z,97877.19
2022-11-01T09:56:00.131Z,97882.50
2022-11-01T09:58:36.810Z,97874.91
2022-11-01T10:01:17.444Z,97873.19
2022-11-01T10:03:53.440Z,97876.19
2022-11-01T10:06:25.201Z,97880.72
2022-11-01T10:09:02.155Z,97877.75
2022-11-01T10:11:47.549Z,97874.53
2022-11-01T10:14:27.373Z,97882.16
2022-11-01T10:17:06.805Z,97890.06
2022-11-01T10:19:34.257Z,97889.84
2022-11-01T10:22:07.525Z,97882.41
2022-11-01T10:24:40.784Z,97886.84
2022-11-01T10:27:16.830Z,97892.63
2022-11-01T10:29:47.395Z,97892.75
2022-11-01T10:32:26.764Z,97890.50
2022-11-01T10:34:54.904Z,97896.31
2022-11-01T10:37:26.923Z,97904.00
2022-11-01T10:39:59.048Z,97895.41
2022-11-01T10:42:28.564Z,97899.63
2022-11-01T10:44:59.620Z,97898.28
2022-11-01T10:47:26.823Z,97890.75
2022-11-01T10:50:07.408Z,97895.81
2022-11-01T10:52:51.258Z,97904.13
2022-11-01T10:55:22.833Z,97895.88
2022-11-01T10:57:55.462Z,97901.13
2022-11-01T11:00:22.138Z,97894.44
2022-11-01T11:02:52.222Z,97895.56
2022-11-01T11:05:20.679Z,97895.88
2022-11-01T11:07:48.729Z,97901.03
2022-11-01T11:10:23.025Z,97904.13
2022-11-01T11:12:56.195Z,97894.16
2022-11-01T11:15:35.596Z,97889.00
2022-11-01T11:18:07.918Z,97886.44
2022-11-01T11:20:34.609Z,97897.94
2022-11-01T11:23:03.641Z,97891.81
2022-11-01T11:25:35.104Z,97887.38
2022-11-01T11:28:02.867Z,97889.88
2022-11-01T11:30:31.320Z,97886.19
2022-11-01T11:32:58.717Z,97886.94
2022-11-01T11:35:27.383Z,97888.56
2022-11-01T11:37:56.279Z,97879.06
2022-11-01T11:40:25.956Z,97871.31
2022-11-01T11:42:54.586Z,97869.47
2022-11-01T11:45:25.050Z,97874.75
2022-11-01T11:47:51.862Z,97864.16
2022-11-01T11:50:27.217Z,97866.91
2022-11-01T11:52:59.848Z,97866.66
2022-11-01T11:55:39.965Z,97867.69
2022-11-01T11:58:18.310Z,97870.13
2022-11-01T12:00:49.233Z,97864.78
2022-11-01T12:03:16.787Z,97864.16
2022-11-01T12:05:55.765Z,97866.47
2022-11-01T12:08:34.542Z,97870.66
2022-11-01T12:11:03.691Z,97868.19
2022-11-01T12:13:34.104Z,97865.34
2022-11-01T12:16:17.836Z,97861.34
2022-11-01T12:18:49.605Z,97865.66
2022-11-01T12:21:19.647Z,97857.19
2022-11-01T12:23:48.100Z,97864.78
2022-11-01T12:26:17.850Z,97859.94
2022-11-01T12:28:48.935Z,97851.69
2022-11-01T12:31:19.292Z,97856.06
2022-11-01T12:33:49.183Z,97844.16
2022-11-01T12:36:20.315Z,97853.06
2022-11-01T12:38:51.113Z,97849.63
2022-11-01T12:41:29.787Z,97847.84
2022-11-01T12:44:04.814Z,97863.56
2022-11-01T12:46:38.092Z,97859.44
2022-11-01T12:49:12.379Z,97869.38
2022-11-01T12:51:44.873Z,97863.28
2022-11-01T12:54:16.885Z,97856.81
2022-11-01T12:56:44.881Z,97865.25
2022-11-01T12:59:15.563Z,97858.84
2022-11-01T13:01:50.810Z,97857.25
2022-11-01T13:04:26.484Z,97861.78
2022-11-01T13:07:11.045Z,97869.88
2022-11-01T13:09:49.086Z,97870.63
2022-11-01T13:12:26.590Z,97870.63
2022-11-01T13:15:04.270Z,97869.19
2022-11-01T13:17:39.467Z,97879.06
2022-11-01T13:20:21.053Z,97872.28
2022-11-01T13:22:56.473Z,97861.25
2022-11-01T13:25:31.189Z,97865.03
2022-11-01T13:28:15.986Z,97860.66
2022-11-01T13:30:48.996Z,97861.34
2022-11-01T13:33:21.804Z,97859.09
2022-11-01T13:35:56.597Z,97853.97
2022-11-01T13:38:32.489Z,97852.50
2022-11-01T13:41:07.096Z,97852.31
2022-11-01T13:43:39.790Z,97866.25
2022-11-01T13:46:45.302Z,97875.59
2022-11-01T13:49:49.098Z,97882.75
2022-11-01T13:52:18.668Z,97882.31
2022-11-01T13:54:53.104Z,97885.38
2022-11-01T13:57:23.229Z,97878.34
2022-11-01T13:59:56.687Z,97876.72
2022-11-01T14:02:44.316Z,97889.03
2022-11-01T14:05:12.077Z,97876.63
2022-11-01T14:07:59.736Z,97881.81
2022-11-01T14:10:46.115Z,97873.69
2022-11-01T14:13:16.713Z,97884.00
2022-11-01T14:16:24.453Z,97879.31
2022-11-01T14:19:21.016Z,97875.44
2022-11-01T14:21:51.572Z,97878.22
2022-11-01T14:24:24.285Z,97874.50
2022-11-01T14:27:18.424Z,97867.63
2022-11-01T14:29:47.972Z,97878.56
2022-11-01T14:32:14.588Z,97877.41
2022-11-01T14:34:42.730Z,97878.09
2022-11-01T14:37:18.321Z,97875.31
2022-11-01T14:39:54.782Z,97881.41
2022-11-01T14:42:26.026Z,97880.66
2022-11-01T14:44:54.973Z,97880.38
2022-11-01T14:47:31.174Z,97883.94
2022-11-01T14:50:05.136Z,97885.56
2022-11-01T14:52:38.816Z,97886.66
2022-11-01T14:55:14.066Z,97899.28
2022-11-01T14:57:40.623Z,97894.19
2022-11-01T15:00:25.356Z,97890.00
2022-11-01T15:02:52.227Z,97894.63
2022-11-01T15:05:20.331Z,97899.34
2022-11-01T15:07:51.246Z,97901.44
2022-11-01T15:10:17.870Z,97905.25
2022-11-01T15:12:48.174Z,97909.03
2022-11-01T15:15:18.910Z,97901.97
2022-11-01T15:17:51.292Z,97909.38
2022-11-01T15:20:21.127Z,97912.06
2022-11-01T15:22:48.007Z,97905.47
2022-11-01T15:25:21.933Z,97911.34
2022-11-01T15:27:50.064Z,97912.78
2022-11-01T15:30:21.833Z,97915.72
2022-11-01T15:32:51.476Z,97916.16
2022-11-01T15:35:23.441Z,97917.19
2022-11-01T15:37:51.970Z,97916.34
2022-11-01T15:40:27.494Z,97922.09
2022-11-01T15:42:57.501Z,97923.09
2022-11-01T15:45:28.586Z,97924.34
2022-11-01T15:47:56.224Z,97922.09
2022-11-01T15:50:24.203Z,97925.78
2022-11-01T15:52:50.789Z,97926.09
2022-11-01T15:55:26.965Z,97923.34
2022-11-01T15:57:59.130Z,97927.91
2022-11-01T16:00:33.104Z,97928.03
2022-11-01T16:03:04.608Z,97937.84
2022-11-01T16:05:36.950Z,97941.50
2022-11-01T16:08:07.135Z,97941.19
2022-11-01T16:10:34.071Z,97941.50
2022-11-01T16:13:02.312Z,97948.13
2022-11-01T16:15:31.053Z,97945.41
2022-11-01T16:18:00.149Z,97948.78
2022-11-01T16:20:34.572Z,97950.41
2022-11-01T16:23:02.393Z,97946.63
2022-11-01T16:25:31.629Z,97942.50
2022-11-01T16:28:05.103Z,97952.03
2022-11-01T16:30:40.336Z,97961.56
2022-11-01T16:33:21.237Z,97964.13
2022-11-01T16:35:50.626Z,97958.94
2022-11-01T16:38:43.003Z,97965.69
2022-11-01T16:41:18.265Z,97964.88
2022-11-01T16:43:44.918Z,97970.19
2022-11-01T16:46:11.631Z,97971.84
2022-11-01T16:48:49.790Z,97973.88
2022-11-01T16:51:18.373Z,97978.38
2022-11-01T16:53:45.000Z,97977.91
2022-11-01T16:56:35.574Z,97979.13
2022-11-01T16:59:06.957Z,97987.38
2022-11-01T17:01:35.868Z,97992.97
2022-11-01T17:04:04.460Z,97999.47
2022-11-01T17:06:36.130Z,97994.84
2022-11-01T17:09:11.817Z,97998.72
2022-11-01T17:11:38.394Z,98006.22
2022-11-01T17:14:04.957Z,98001.28
2022-11-01T17:16:31.805Z,98008.50
2022-11-01T17:19:00.895Z,98015.13
2022-11-01T17:21:30.960Z,98011.41
2022-11-01T17:23:59.087Z,98004.19
2022-11-01T17:26:25.664Z,98014.38
2022-11-01T17:28:52.480Z,98014.47
2022-11-01T17:31:19.299Z,98014.91
2022-11-01T17:33:45.920Z,98015.94
2022-11-01T17:36:14.219Z,98021.72
2022-11-01T17:38:41.429Z,98018.34
2022-11-01T17:41:14.885Z,98017.31
2022-11-01T17:43:41.437Z,98012.22
2022-11-01T17:46:13.392Z,98011.22
2022-11-01T17:48:39.742Z,98011.63
2022-11-01T17:51:06.591Z,98009.75
2022-11-01T17:53:33.144Z,98012.50
2022-11-01T17:55:59.700Z,98014.59
2022-11-01T17:58:27.641Z,98017.50
2022-11-01T18:00:54.273Z,98012.03
2022-11-01T18:03:20.892Z,98017.97
2022-11-01T18:05:47.471Z,98019.13
2022-11-01T18:08:16.486Z,98022.53
2022-11-01T18:10:48.735Z,98028.06
2022-11-01T18:13:50.432Z,98036.91
2022-11-01T18:16:26.465Z,98029.53
2022-11-01T18:19:34.804Z,98026.56
2022-11-01T18:22:09.639Z,98023.66
2022-11-01T18:24:41.763Z,98027.91
2022-11-01T18:27:10.052Z,98025.75
2022-11-01T18:29:41.166Z,98020.59
2022-11-01T18:32:16.146Z,98023.06
2022-11-01T18:34:47.689Z,98028.25
2022-11-01T18:37:23.975Z,98034.88
2022-11-01T18:39:58.157Z,98025.25
2022-11-01T18:42:24.754Z,98027.72
2022-11-01T18:44:56.944Z,98025.53
2022-11-01T18:47:29.766Z,98029.28
2022-11-01T18:49:59.546Z,98025.53
2022-11-01T18:52:27.408Z,98033.91
2022-11-01T18:54:56.843Z,98037.22
2022-11-01T18:57:24.094Z,98033.91
2022-11-01T18:59:53.120Z,98040.75
2022-11-01T19:02:21.914Z,98039.59
2022-11-01T19:04:51.116Z,98037.81
2022-11-01T19:07:19.172Z,98034.72
2022-11-01T19:09:52.295Z,98029.56
2022-11-01T19:12:26.888Z,98020.22
2022-11-01T19:15:03.211Z,98028.00
2022-11-01T19:17:34.852Z,98029.44
2022-11-01T19:20:01.465Z,98034.59
2022-11-01T19:22:32.580Z,98025.25
2022-11-01T19:25:00.260Z,98035.06
2022-11-01T19:27:26.922Z,98031.22
2022-11-01T19:29:57.777Z,98036.53
2022-11-01T19:32:26.272Z,98047.25
2022-11-01T19:34:54.645Z,98039.38
2022-11-01T19:37:29.204Z,98043.13
2022-11-01T19:39:58.196Z,98039.53
2022-11-01T19:42:28.023Z,98035.66
2022-11-01T19:44:57.889Z,98052.56
2022-11-01T19:47:45.957Z,98043.97
2022-11-01T19:50:20.322Z,98042.28
2022-11-01T19:52:47.716Z,98033.16
2022-11-01T19:55:38.536Z,98033.47
2022-11-01T19:58:25.654Z,98035.66
2022-11-01T20:01:15.223Z,98035.06
2022-11-01T20:03:46.635Z,98038.34
2022-11-01T20:06:16.294Z,98040.38
2022-11-01T20:08:43.350Z,98040.13
2022-11-01T20:11:09.923Z,98035.59
2022-11-01T20:13:36.451Z,98043.22
2022-11-01T20:16:03.013Z,98040.22
2022-11-01T20:18:29.585Z,98042.06
2022-11-01T20:20:57.554Z,98041.72
2022-11-01T20:23:26.952Z,98040.22
2022-11-01T20:25:54.241Z,98041.91
2022-11-01T20:28:20.831Z,98034.81
2022-11-01T20:30:47.429Z,98045.13
2022-11-01T20:33:14.018Z,98042.06
2022-11-01T20:35:40.587Z,98039.31
2022-11-01T20:38:08.690Z,98042.13
2022-11-01T20:40:35.788Z,98047.72
2022-11-01T20:43:02.572Z,98046.25
2022-11-01T20:45:29.460Z,98046.03
2022-11-01T20:47:56.039Z,98053.84
2022-11-01T20:50:22.618Z,98058.25
2022-11-01T20:52:49.164Z,98052.81
2022-11-01T20:55:17.456Z,98058.53
2022-11-01T20:57:44.252Z,98055.34
2022-11-01T21:00:12.172Z,98057.63
2022-11-01T21:02:38.759Z,98060.34
2022-11-01T21:05:15.137Z,98063.22
2022-11-01T21:07:46.746Z,98064.97
2022-11-01T21:10:31.790Z,98070.25
2022-11-01T21:12:59.605Z,98068.09
2022-11-01T21:15:33.153Z,98069.97
2022-11-01T21:18:25.317Z,98081.56
2022-11-01T21:20:51.768Z,98069.50
2022-11-01T21:23:25.440Z,98071.09
2022-11-01T21:25:54.936Z,98071.59
2022-11-01T21:28:27.908Z,98062.75
2022-11-01T21:30:55.015Z,98062.97
2022-11-01T21:33:31.495Z,98056.25
2022-11-01T21:35:58.061Z,98062.38
2022-11-01T21:38:40.906Z,98066.56
2022-11-01T21:41:34.286Z,98063.16
2022-11-01T21:44:14.247Z,98073.13
2022-11-01T21:46:41.560Z,98074.22
2022-11-01T21:49:23.953Z,98069.13
2022-11-01T21:51:50.557Z,98083.25
2022-11-01T21:54:17.126Z,98077.72
2022-11-01T21:56:45.111Z,98082.75
2022-11-01T21:59:11.981Z,98074.16
2022-11-01T22:01:39.609Z,98082.19
2022-11-01T22:04:06.286Z,98081.34
2022-11-01T22:06:32.844Z,98074.13
2022-11-01T22:08:59.400Z,98072.72
2022-11-01T22:11:30.216Z,98076.06
2022-11-01T22:14:00.509Z,98067.19
2022-11-01T22:16:27.344Z,98068.59
2022-11-01T22:18:54.009Z,98068.06
2022-11-01T22:21:20.587Z,98070.41
2022-11-01T22:23:47.454Z,98061.09
2022-11-01T22:26:14.050Z,98062.41
2022-11-01T22:28:40.653Z,98058.47
2022-11-01T22:31:08.696Z,98064.06
2022-11-01T22:33:36.021Z,98066.22
2022-11-01T22:36:03.448Z,98056.47
2022-11-01T22:38:35.431Z,98056.50
2022-11-01T22:41:10.118Z,98063.47
2022-11-01T22:43:40.342Z,98060.75
2022-11-01T22:46:17.583Z,98069.81
2022-11-01T22:48:44.157Z,98068.47
2022-11-01T22:51:20.468Z,98067.97
2022-11-01T22:53:47.168Z,98062.44
2022-11-01T22:56:14.510Z,98057.00
2022-11-01T22:58:41.113Z,98059.22
2022-11-01T23:01:19.478Z,98059.50
2022-11-01T23:03:51.711Z,98065.31
2022-11-01T23:06:32.652Z,98067.22
2022-11-01T23:09:10.636Z,98061.56
2022-11-01T23:11:37.224Z,98053.84
2022-11-01T23:14:15.855Z,98049.50
2022-11-01T23:16:44.136Z,98052.63
2022-11-01T23:19:13.356Z,98053.47
2022-11-01T23:21:40.032Z,98044.03
2022-11-01T23:24:07.566Z,98057.22
2022-11-01T23:26:34.288Z,98048.13
2022-11-01T23:29:01.768Z,98059.03
2022-11-01T23:31:29.206Z,98055.97
2022-11-01T23:33:57.157Z,98058.25
2022-11-01T23:36:27.487Z,98052.13
2022-11-01T23:38:56.495Z,98052.50
2022-11-01T23:41:25.276Z,98055.56
2022-11-01T23:43:53.792Z,98049.53
2022-11-01T23:46:20.477Z,98049.69
2022-11-01T23:48:47.430Z,98053.72
2022-11-01T23:51:19.035Z,98054.03
2022-11-01T23:53:48.304Z,98058.09
2022-11-01T23:56:18.813Z,98059.56
2022-11-01T23:58:48.289Z,98056.25
